Time;durP1;ratioP1;P1;durP2;ratioP2;P2;SDS_P1;SDS_P2;PMS_P1;PMS_P2;Temp;Humidity;BMP_temperature;BMP_pressure;BME280_temperature;BME280_humidity;BME280_pressure;Samples;Min_cycle;Max_cycle;Signal;HPM_P1;HPM_P2
2023/10/09 00:01:09;;;;;;;13.95;4.47;;;;;;;12.69;100.00;97964.63;5026228;28;21293;-83
2023/10/09 00:03:37;;;;;;;15.33;5.03;;;;;;;12.69;100.00;97951.34;5028564;28;20401;-83
2023/10/09 00:06:04;;;;;;;16.73;4.40;;;;;;;12.70;100.00;97952.94;5025084;28;20405;-84
2023/10/09 00:08:31;;;;;;;11.40;4.22;;;;;;;12.69;100.00;97946.03;5022452;28;20404;-81
2023/10/09 00:10:59;;;;;;;12.27;4.50;;;;;;;12.68;100.00;97947.88;5022215;28;20417;-83
2023/10/09 00:13:32;;;;;;;14.45;4.35;;;;;;;12.69;100.00;97949.50;5021924;28;20389;-82
2023/10/09 00:16:13;;;;;;;11.93;4.28;;;;;;;12.68;100.00;97947.88;5007057;28;20398;-82
2023/10/09 00:18:47;;;;;;;12.13;3.92;;;;;;;12.69;100.00;97952.16;5005489;28;20453;-84
2023/10/09 00:21:15;;;;;;;11.85;4.00;;;;;;;12.68;100.00;97955.03;5002321;28;20406;-83
2023/10/09 00:23:42;;;;;;;10.68;3.72;;;;;;;12.67;100.00;97951.59;5002117;28;20449;-84
2023/10/09 00:26:09;;;;;;;12.75;4.43;;;;;;;12.66;100.00;97955.28;5002524;28;20406;-82
2023/10/09 00:28:37;;;;;;;11.33;3.77;;;;;;;12.67;100.00;97948.13;5002695;28;20445;-84
2023/10/09 00:31:06;;;;;;;14.77;4.43;;;;;;;12.66;100.00;97954.47;5002499;28;20433;-84
2023/10/09 00:33:32;;;;;;;23.25;5.57;;;;;;;12.66;100.00;97951.81;5003262;28;20593;-83
2023/10/09 00:36:10;;;;;;;14.02;4.30;;;;;;;12.65;100.00;97950.22;5003029;28;20407;-83
2023/10/09 00:38:38;;;;;;;13.80;4.70;;;;;;;12.63;100.00;97942.50;5003161;28;20399;-83
2023/10/09 00:43:35;;;;;;;12.18;4.30;;;;;;;12.62;100.00;97938.25;5004801;28;20414;-84
2023/10/09 00:46:04;;;;;;;16.77;4.57;;;;;;;12.62;100.00;97942.78;5016613;28;20405;-84
2023/10/09 00:48:31;;;;;;;16.63;4.72;;;;;;;12.59;100.00;97935.28;5026058;28;20393;-84
2023/10/09 00:51:00;;;;;;;15.20;4.60;;;;;;;12.60;100.00;97932.38;5028875;28;20468;-83
2023/10/09 00:53:31;;;;;;;15.50;4.88;;;;;;;12.58;100.00;97923.88;5025212;28;20424;-84
2023/10/09 00:55:57;;;;;;;22.63;5.30;;;;;;;12.59;100.00;97920.16;5027020;28;20411;-82
2023/10/09 00:58:30;;;;;;;15.18;5.10;;;;;;;12.57;100.00;97919.59;5023984;28;20393;-84
2023/10/09 01:00:59;;;;;;;13.85;4.47;;;;;;;12.58;100.00;97923.06;5022648;28;20427;-84
2023/10/09 01:03:26;;;;;;;19.60;5.60;;;;;;;12.56;100.00;97912.69;5025858;28;20408;-85
2023/10/09 01:10:56;;;;;;;21.33;5.68;;;;;;;12.57;100.00;97911.63;5024316;28;20428;-83
2023/10/09 01:13:34;;;;;;;20.50;5.38;;;;;;;12.58;100.00;97910.59;5024522;28;20404;-83
2023/10/09 01:16:05;;;;;;;18.65;5.10;;;;;;;12.62;100.00;97911.72;5013234;28;20389;-84
2023/10/09 01:18:36;;;;;;;24.50;5.47;;;;;;;12.67;100.00;97913.59;5022147;28;20936;-83
2023/10/09 01:21:02;;;;;;;25.10;5.70;;;;;;;12.71;100.00;97907.50;5022781;28;20401;-83
2023/10/09 01:23:30;;;;;;;19.33;5.95;;;;;;;12.77;100.00;97909.19;5022660;28;20408;-84
2023/10/09 01:25:56;;;;;;;25.88;5.20;;;;;;;12.86;100.00;97908.72;5023900;28;20412;-84
2023/10/09 01:28:24;;;;;;;35.42;6.30;;;;;;;12.93;100.00;97902.13;5025033;28;20401;-84
2023/10/09 01:30:52;;;;;;;26.73;5.93;;;;;;;13.04;100.00;97897.72;5027619;28;20445;-84
2023/10/09 01:33:24;;;;;;;15.90;5.05;;;;;;;13.15;100.00;97894.94;5023254;28;20397;-84
2023/10/09 01:35:56;;;;;;;22.87;6.00;;;;;;;13.29;100.00;97895.28;5025647;28;20397;-83
2023/10/09 01:38:33;;;;;;;20.80;5.55;;;;;;;13.38;100.00;97895.63;5022713;28;20397;-83
2023/10/09 01:41:06;;;;;;;16.88;5.00;;;;;;;13.48;100.00;97893.00;5021639;28;20436;-83
2023/10/09 01:43:34;;;;;;;11.90;4.10;;;;;;;13.53;100.00;97893.03;5020674;28;20424;-84
2023/10/09 01:46:01;;;;;;;15.00;4.28;;;;;;;13.55;100.00;97888.25;5009075;28;20398;-83
2023/10/09 01:48:27;;;;;;;14.15;4.25;;;;;;;13.54;100.00;97889.31;5002278;28;20489;-84
2023/10/09 01:50:53;;;;;;;19.80;5.07;;;;;;;13.52;100.00;97888.78;5002477;28;20418;-82
2023/10/09 01:53:22;;;;;;;19.02;4.63;;;;;;;13.48;100.00;97887.69;5003131;28;20425;-84
2023/10/09 01:55:49;;;;;;;15.27;4.22;;;;;;;13.45;100.00;97883.69;5003220;28;20430;-83
2023/10/09 01:58:24;;;;;;;21.00;5.90;;;;;;;13.40;100.00;97874.84;5002269;28;20399;-84
2023/10/09 02:01:01;;;;;;;15.73;4.63;;;;;;;13.39;100.00;97879.38;5003481;28;20402;-84
2023/10/09 02:03:29;;;;;;;17.13;4.40;;;;;;;13.39;100.00;97867.94;5004545;28;20466;-84
2023/10/09 02:06:03;;;;;;;28.83;5.80;;;;;;;13.49;100.00;97862.69;5003724;28;20449;-82
2023/10/09 02:08:29;;;;;;;23.98;5.15;;;;;;;13.52;100.00;97870.97;5000888;28;20402;-83
2023/10/09 02:10:56;;;;;;;17.05;5.70;;;;;;;13.56;100.00;97868.56;5001422;28;20419;-84
2023/10/09 02:13:29;;;;;;;19.92;4.72;;;;;;;13.59;100.00;97870.72;5000992;28;20476;-83
2023/10/09 02:16:12;;;;;;;19.15;4.93;;;;;;;13.61;100.00;97867.81;5016205;28;20409;-83
2023/10/09 02:18:55;;;;;;;15.98;4.88;;;;;;;13.65;100.00;97866.22;5022497;28;20393;-84
2023/10/09 02:21:30;;;;;;;17.13;4.90;;;;;;;13.68;100.00;97863.06;5022715;28;20785;-83
2023/10/09 02:23:57;;;;;;;17.30;4.90;;;;;;;13.68;100.00;97863.84;5018173;28;20873;-81
2023/10/09 02:26:26;;;;;;;22.17;5.27;;;;;;;13.67;100.00;97864.13;5018515;28;20995;-81
2023/10/09 02:28:58;;;;;;;23.05;5.65;;;;;;;13.64;100.00;97861.97;5021770;28;20440;-84
2023/10/09 02:31:27;;;;;;;19.93;5.30;;;;;;;13.61;100.00;97857.19;5021958;28;20424;-81
2023/10/09 02:33:55;;;;;;;19.98;4.40;;;;;;;13.56;100.00;97861.41;5022187;28;20417;-81
2023/10/09 02:36:21;;;;;;;20.55;5.65;;;;;;;13.55;100.00;97862.44;5022332;28;20423;-81
2023/10/09 02:38:48;;;;;;;16.55;5.30;;;;;;;13.53;100.00;97861.13;5023043;28;20396;-81
2023/10/09 02:43:44;;;;;;;13.25;4.03;;;;;;;13.50;100.00;97857.13;5023135;28;20427;-81
2023/10/09 02:46:19;;;;;;;12.07;4.47;;;;;;;13.48;100.00;97859.22;5010714;28;20399;-84
2023/10/09 02:48:50;;;;;;;15.38;4.47;;;;;;;13.46;100.00;97856.00;5002674;28;20395;-83
2023/10/09 02:53:52;;;;;;;12.05;3.95;;;;;;;13.44;100.00;97871.44;5003267;28;20426;-83
2023/10/09 02:56:23;;;;;;;9.10;3.55;;;;;;;13.42;100.00;97857.59;5003634;28;20426;-83
2023/10/09 02:58:50;;;;;;;9.80;3.85;;;;;;;13.41;100.00;97863.16;5003357;28;20497;-83
2023/10/09 03:01:17;;;;;;;9.73;3.63;;;;;;;13.39;100.00;97850.13;5004359;28;20489;-83
2023/10/09 03:03:45;;;;;;;11.93;3.73;;;;;;;13.38;100.00;97850.41;5004798;28;20421;-83
2023/10/09 03:06:12;;;;;;;11.00;3.70;;;;;;;13.38;100.00;97845.84;5005399;28;20398;-83
2023/10/09 03:08:40;;;;;;;11.02;3.40;;;;;;;13.37;100.00;97854.91;5005683;28;20403;-83
2023/10/09 03:11:13;;;;;;;7.18;3.25;;;;;;;13.37;100.00;97846.13;5006985;28;20461;-83
2023/10/09 03:13:43;;;;;;;14.30;3.92;;;;;;;13.35;100.00;97837.63;5006707;28;20473;-84
2023/10/09 03:16:14;;;;;;;13.13;4.30;;;;;;;13.37;100.00;97836.31;5005746;28;20410;-84
2023/10/09 03:18:41;;;;;;;17.73;4.30;;;;;;;13.40;100.00;97833.13;5002593;28;20628;-83
2023/10/09 03:21:08;;;;;;;20.88;4.57;;;;;;;13.46;100.00;97837.41;5002181;28;20406;-83
2023/10/09 03:23:34;;;;;;;14.63;5.13;;;;;;;13.51;100.00;97834.78;5002875;28;20402;-83
2023/10/09 03:26:01;;;;;;;19.70;4.93;;;;;;;13.58;100.00;97826.56;5003250;28;20406;-83
2023/10/09 03:28:27;;;;;;;17.33;4.75;;;;;;;13.63;100.00;97826.56;5002809;28;20410;-82
2023/10/09 03:30:53;;;;;;;22.13;5.20;;;;;;;13.68;100.00;97828.47;5003798;28;20529;-81
2023/10/09 03:33:19;;;;;;;15.25;5.40;;;;;;;13.75;100.00;97819.19;5003434;28;20441;-82
2023/10/09 03:35:47;;;;;;;19.03;5.53;;;;;;;13.80;100.00;97819.22;5004293;28;20448;-82
2023/10/09 03:38:17;;;;;;;17.27;4.70;;;;;;;13.83;100.00;97823.22;5005809;28;20596;-84
2023/10/09 03:40:43;;;;;;;20.67;4.78;;;;;;;13.86;100.00;97828.00;5002805;28;20407;-82
2023/10/09 03:43:10;;;;;;;17.53;4.80;;;;;;;13.86;100.00;97823.47;5002824;28;20425;-83
2023/10/09 03:45:39;;;;;;;17.40;4.57;;;;;;;13.85;100.00;97829.06;5003818;28;20488;-84
2023/10/09 03:48:20;;;;;;;12.82;4.30;;;;;;;13.83;100.00;97817.91;5003991;28;20402;-83
2023/10/09 03:50:48;;;;;;;10.03;3.83;;;;;;;13.79;100.00;97825.59;5003106;28;20462;-83
2023/10/09 03:53:16;;;;;;;9.77;3.60;;;;;;;13.75;100.00;97826.38;5003341;28;20417;-84
2023/10/09 03:55:42;;;;;;;12.37;4.10;;;;;;;13.71;100.00;97835.94;5005674;28;20493;-85
2023/10/09 03:58:18;;;;;;;8.45;3.20;;;;;;;13.66;100.00;97822.63;5006420;28;20403;-83
2023/10/09 04:00:45;;;;;;;11.02;3.65;;;;;;;13.63;100.00;97823.13;5009494;28;20410;-84
2023/10/09 04:03:13;;;;;;;13.82;3.97;;;;;;;13.60;100.00;97821.00;5008960;28;20400;-84
2023/10/09 04:05:42;;;;;;;17.38;4.57;;;;;;;13.54;100.00;97822.81;5020890;28;20429;-82
2023/10/09 04:08:13;;;;;;;13.43;3.85;;;;;;;13.51;100.00;97826.00;5012272;28;20913;-79
2023/10/09 04:10:52;;;;;;;12.57;4.15;;;;;;;13.45;100.00;97825.19;5004327;28;20858;-77
2023/10/09 04:13:22;;;;;;;12.98;3.10;;;;;;;13.39;100.00;97822.72;5002368;28;20402;-77
2023/10/09 04:15:52;;;;;;;13.00;3.58;;;;;;;13.32;100.00;97822.16;5005349;28;20415;-79
2023/10/09 04:18:18;;;;;;;8.05;2.85;;;;;;;13.28;100.00;97829.06;5005420;28;20448;-80
2023/10/09 04:23:16;;;;;;;10.48;3.58;;;;;;;13.16;100.00;97832.69;5005530;28;20410;-79
2023/10/09 04:25:42;;;;;;;14.38;3.72;;;;;;;13.10;100.00;97825.72;5007765;28;20412;-79
2023/10/09 04:28:11;;;;;;;10.90;3.67;;;;;;;13.06;100.00;97821.19;5006506;28;20398;-79
2023/10/09 04:30:46;;;;;;;17.07;5.30;;;;;;;13.02;100.00;97826.19;5004382;28;20425;-79
2023/10/09 04:33:29;;;;;;;14.15;4.00;;;;;;;12.98;100.00;97824.31;5001853;28;20398;-79
2023/10/09 04:38:55;;;;;;;15.98;4.88;;;;;;;12.90;100.00;97833.56;5000273;28;20426;-80
2023/10/09 04:41:27;;;;;;;9.82;3.33;;;;;;;12.89;100.00;97831.97;5003248;28;20434;-80
2023/10/09 04:44:03;;;;;;;16.95;5.53;;;;;;;12.87;100.00;97835.91;5007166;28;20423;-80
2023/10/09 04:46:43;;;;;;;14.70;4.20;;;;;;;12.85;100.00;97827.44;5002834;28;20408;-81
2023/10/09 04:49:26;;;;;;;10.18;3.67;;;;;;;12.85;100.00;97822.91;5005815;28;20401;-80
2023/10/09 04:52:05;;;;;;;13.00;3.35;;;;;;;12.86;100.00;97826.34;5004077;28;20532;-79
2023/10/09 04:54:39;;;;;;;10.88;4.03;;;;;;;12.84;100.00;97829.28;4981455;28;20424;-80
2023/10/09 04:57:17;;;;;;;15.47;4.20;;;;;;;12.85;100.00;97832.75;5007748;28;20396;-80
2023/10/09 04:59:48;;;;;;;12.43;4.00;;;;;;;12.83;100.00;97825.00;5006638;28;20820;-80
2023/10/09 05:02:19;;;;;;;15.93;3.90;;;;;;;12.84;100.00;97825.81;5006599;28;20408;-79
2023/10/09 05:04:47;;;;;;;10.95;3.38;;;;;;;12.85;100.00;97827.44;5002458;28;20403;-83
2023/10/09 05:07:22;;;;;;;12.00;3.40;;;;;;;12.86;100.00;97827.16;5004708;28;20401;-82
2023/10/09 05:10:08;;;;;;;9.20;3.30;;;;;;;12.88;100.00;97827.69;5019222;28;20397;-83
2023/10/09 05:12:34;;;;;;;11.98;2.75;;;;;;;12.89;100.00;97831.16;5018331;28;20432;-82
2023/10/09 05:15:08;;;;;;;13.13;4.15;;;;;;;12.88;100.00;97832.22;5017457;28;20455;-79
2023/10/09 05:17:35;;;;;;;8.25;2.90;;;;;;;12.90;100.00;97832.75;5017769;28;20488;-81
2023/10/09 05:23:23;;;;;;;8.30;3.22;;;;;;;12.89;100.00;97837.28;5018115;28;20428;-82
2023/10/09 05:25:53;;;;;;;20.02;4.68;;;;;;;12.88;100.00;97837.53;5014594;28;20455;-83
2023/10/09 05:28:30;;;;;;;13.77;3.53;;;;;;;12.88;100.00;97834.88;5001392;28;20403;-82
2023/10/09 05:31:09;;;;;;;13.77;4.43;;;;;;;12.87;100.00;97843.88;5016532;28;20365;-83
2023/10/09 05:33:37;;;;;;;9.77;3.10;;;;;;;12.86;100.00;97847.59;5019707;28;20405;-83
2023/10/09 05:38:58;;;;;;;11.73;3.95;;;;;;;12.87;100.00;97846.53;5014453;28;20408;-82
2023/10/09 05:41:47;;;;;;;14.50;4.03;;;;;;;12.89;100.00;97852.41;5010002;28;20742;-82
2023/10/09 05:47:29;;;;;;;12.13;3.50;;;;;;;12.94;100.00;97855.91;5016825;28;20411;-82
2023/10/09 05:49:54;;;;;;;9.40;3.17;;;;;;;12.97;100.00;97854.59;5017500;28;20405;-83
2023/10/09 05:52:32;;;;;;;13.60;3.90;;;;;;;13.00;100.00;97849.59;5010393;28;20422;-83
2023/10/09 06:08:27;;;;;;;19.48;4.93;;;;;;;13.47;100.00;97836.34;5005948;28;20418;-80
2023/10/09 06:11:06;;;;;;;22.00;4.47;;;;;;;13.61;100.00;97843.88;5004734;28;20529;-80
2023/10/09 06:19:49;;;;;;;18.67;4.50;;;;;;;13.88;100.00;97852.50;5024560;28;20849;-80
2023/10/09 06:24:42;;;;;;;13.90;4.20;;;;;;;14.00;100.00;97854.94;5021514;28;20421;-79
2023/10/09 06:34:51;;;;;;;21.08;4.95;;;;;;;14.26;100.00;97853.94;5018249;28;20789;-78
2023/10/09 06:41:01;;;;;;;14.65;3.75;;;;;;;14.34;100.00;97867.56;5002192;28;20414;-77
2023/10/09 06:45:14;;;;;;;14.20;3.95;;;;;;;14.38;100.00;97873.16;5005135;28;20412;-78
2023/10/09 06:47:41;;;;;;;13.82;3.22;;;;;;;14.38;100.00;97869.69;5016456;28;20404;-77
2023/10/09 06:50:56;;;;;;;10.80;3.50;;;;;;;14.41;100.00;97875.31;5017540;28;20893;-78
2023/10/09 06:53:18;;;;;;;13.88;3.33;;;;;;;14.45;100.00;97878.25;5013473;28;20824;-77
2023/10/09 06:55:51;;;;;;;10.90;3.57;;;;;;;14.56;100.00;97879.88;5019974;28;20500;-79
2023/10/09 06:58:26;;;;;;;11.68;3.58;;;;;;;14.61;100.00;97874.53;5018175;28;20406;-77
2023/10/09 07:03:59;;;;;;;11.80;3.70;;;;;;;14.70;100.00;97881.75;5013603;28;20413;-78
2023/10/09 07:14:08;;;;;;;16.63;3.90;;;;;;;14.96;100.00;97876.44;5010885;28;20413;-79
2023/10/09 07:16:38;;;;;;;16.40;4.32;;;;;;;15.02;100.00;97872.72;5000309;28;20423;-78
2023/10/09 07:19:35;;;;;;;15.10;4.40;;;;;;;15.12;100.00;97864.69;5001713;28;20406;-80
2023/10/09 07:22:02;;;;;;;17.65;3.92;;;;;;;15.24;100.00;97875.09;5011957;28;20416;-78
2023/10/09 07:24:37;;;;;;;27.17;5.90;;;;;;;15.32;100.00;97871.88;5013489;28;20501;-80
2023/10/09 07:27:08;;;;;;;12.75;3.65;;;;;;;15.44;100.00;97873.19;5000185;28;20453;-79
2023/10/09 07:29:47;;;;;;;18.00;3.42;;;;;;;15.60;100.00;97873.97;5000579;28;20406;-80
2023/10/09 07:32:20;;;;;;;15.83;4.10;;;;;;;15.65;100.00;97879.28;5005678;28;20516;-79
2023/10/09 07:34:52;;;;;;;13.05;4.13;;;;;;;15.70;100.00;97871.28;5010304;28;20406;-79
2023/10/09 07:37:22;;;;;;;15.77;4.72;;;;;;;15.75;100.00;97871.28;5009570;28;20420;-79
2023/10/09 07:39:56;;;;;;;34.28;8.00;;;;;;;15.79;100.00;97871.50;5018549;28;20404;-79
2023/10/09 07:45:14;;;;;;;35.78;6.85;;;;;;;15.82;100.00;97877.13;5013455;28;20553;-78
2023/10/09 07:48:05;;;;;;;36.13;7.10;;;;;;;15.88;100.00;97873.34;5011941;28;20433;-79
2023/10/09 07:50:40;;;;;;;49.25;8.27;;;;;;;15.96;100.00;97879.19;5008295;28;20424;-79
2023/10/09 07:53:25;;;;;;;90.45;18.67;;;;;;;16.00;100.00;97881.06;5001758;28;20446;-79
2023/10/09 07:55:56;;;;;;;68.82;14.88;;;;;;;16.05;100.00;97882.91;5003888;28;20445;-82
2023/10/09 07:58:26;;;;;;;65.65;11.77;;;;;;;16.02;100.00;97880.75;5010362;28;20394;-79
2023/10/09 08:01:15;;;;;;;24.77;7.03;;;;;;;16.07;100.00;97883.44;5003337;28;20410;-79
2023/10/09 08:03:45;;;;;;;15.05;4.50;;;;;;;16.07;100.00;97884.22;5003648;28;20473;-79
2023/10/09 08:14:42;;;;;;;15.27;3.70;;;;;;;16.30;100.00;97890.00;5003739;28;20438;-78
2023/10/09 08:17:15;;;;;;;12.70;3.33;;;;;;;16.37;100.00;97891.28;5006267;28;20922;-78
2023/10/09 08:20:11;;;;;;;11.30;3.45;;;;;;;16.44;100.00;97894.47;5001927;28;20490;-78
2023/10/09 08:22:44;;;;;;;8.80;3.00;;;;;;;16.51;100.00;97900.31;5005217;28;20770;-78
2023/10/09 08:25:26;;;;;;;8.43;3.28;;;;;;;16.56;100.00;97900.25;5004295;28;20422;-78
2023/10/09 08:27:54;;;;;;;12.25;3.35;;;;;;;16.64;100.00;97897.03;4989345;28;20415;-78
2023/10/09 08:33:00;;;;;;;21.73;5.05;;;;;;;16.80;100.00;97913.78;5010109;28;20501;-79
2023/10/09 08:35:33;;;;;;;15.93;3.50;;;;;;;16.88;100.00;97905.16;5012941;28;20882;-80
2023/10/09 08:38:07;;;;;;;8.83;3.00;;;;;;;16.95;100.00;97900.28;5015336;28;20401;-80
2023/10/09 08:40:38;;;;;;;17.77;5.18;;;;;;;17.05;100.00;97904.78;5011028;28;20394;-80
2023/10/09 08:43:10;;;;;;;25.33;5.00;;;;;;;16.99;100.00;97892.50;5013771;28;20744;-80
2023/10/09 08:45:42;;;;;;;39.00;6.38;;;;;;;17.00;100.00;97894.91;5013982;28;20943;-80
2023/10/09 08:48:15;;;;;;;34.00;6.15;;;;;;;17.03;100.00;97894.34;5018728;28;20423;-82
2023/10/09 08:50:44;;;;;;;29.47;5.47;;;;;;;17.07;100.00;97881.19;5016979;28;20821;-79
2023/10/09 08:53:12;;;;;;;22.50;5.32;;;;;;;17.16;100.00;97884.06;5006760;28;20422;-83
2023/10/09 08:55:40;;;;;;;23.73;5.00;;;;;;;17.17;100.00;97888.34;5003539;28;20397;-81
2023/10/09 08:58:30;;;;;;;28.42;5.78;;;;;;;17.22;100.00;97894.44;5012665;28;20881;-80
2023/10/09 09:00:58;;;;;;;32.40;5.20;;;;;;;17.34;100.00;97897.56;5012932;28;20421;-81
2023/10/09 09:03:25;;;;;;;30.13;5.50;;;;;;;17.35;100.00;97893.00;4996922;28;20446;-80
2023/10/09 09:06:04;;;;;;;24.77;5.72;;;;;;;17.36;100.00;97892.75;5001751;28;20416;-81
2023/10/09 09:08:36;;;;;;;24.02;5.05;;;;;;;17.39;100.00;97900.19;5006497;28;20421;-79
2023/10/09 09:11:12;;;;;;;19.45;4.50;;;;;;;17.50;100.00;97898.22;5015377;28;20408;-80
2023/10/09 09:13:48;;;;;;;28.65;5.63;;;;;;;17.49;100.00;97907.31;5013114;28;20436;-80
2023/10/09 09:16:16;;;;;;;20.65;4.22;;;;;;;17.64;100.00;97898.38;4999218;28;20894;-79
2023/10/09 09:19:00;;;;;;;19.38;4.50;;;;;;;17.69;100.00;97903.66;5010182;28;20398;-80
2023/10/09 09:21:29;;;;;;;32.60;5.10;;;;;;;17.76;100.00;97920.19;5011033;28;20926;-80
2023/10/09 09:23:58;;;;;;;17.00;3.90;;;;;;;17.92;100.00;97916.28;5010398;28;20434;-80
2023/10/09 09:26:37;;;;;;;11.45;3.22;;;;;;;18.00;100.00;97920.19;5006609;28;20540;-79
2023/10/09 09:29:05;;;;;;;18.17;4.00;;;;;;;18.11;100.00;97922.50;5006804;28;20482;-79
2023/10/09 09:31:37;;;;;;;13.25;4.00;;;;;;;18.20;100.00;97930.66;5001758;28;20489;-84
2023/10/09 09:34:12;;;;;;;10.00;3.10;;;;;;;18.27;100.00;97933.03;5002468;28;20414;-79
2023/10/09 09:36:53;;;;;;;12.07;3.80;;;;;;;18.30;100.00;97930.56;4995851;28;20414;-80
2023/10/09 09:39:27;;;;;;;16.42;3.30;;;;;;;18.34;100.00;97934.28;5013099;28;20407;-80
2023/10/09 09:42:03;;;;;;;9.07;2.92;;;;;;;18.39;100.00;97933.41;5017185;28;20412;-81
2023/10/09 09:44:33;;;;;;;9.00;2.95;;;;;;;18.41;100.00;97934.72;5017197;28;20385;-80
2023/10/09 09:47:00;;;;;;;9.57;3.30;;;;;;;18.43;100.00;97935.19;5000769;28;20771;-80
2023/10/09 09:49:31;;;;;;;17.10;4.63;;;;;;;18.45;100.00;97935.72;5000676;28;20889;-81
2023/10/09 09:52:00;;;;;;;8.35;2.78;;;;;;;18.49;100.00;97944.00;5002365;28;20797;-81
2023/10/09 09:54:28;;;;;;;9.32;3.10;;;;;;;18.51;100.00;97934.56;4997302;28;20402;-81
2023/10/09 09:56:57;;;;;;;10.02;2.60;;;;;;;18.55;100.00;97930.22;5012095;28;20974;-80
2023/10/09 09:59:27;;;;;;;10.30;2.83;;;;;;;18.62;100.00;97931.78;5002912;28;20409;-82
2023/10/09 10:01:57;;;;;;;10.07;3.20;;;;;;;18.68;100.00;97936.78;5010124;28;20544;-82
2023/10/09 10:04:27;;;;;;;11.70;3.22;;;;;;;18.74;100.00;97935.63;5004084;28;20418;-83
2023/10/09 10:07:03;;;;;;;10.18;3.25;;;;;;;18.84;100.00;97932.00;5016249;28;20409;-84
2023/10/09 10:09:41;;;;;;;12.05;3.00;;;;;;;18.99;100.00;97929.09;4980009;28;20402;-80
2023/10/09 10:12:10;;;;;;;17.48;3.75;;;;;;;19.11;100.00;97920.56;4998757;28;20426;-80
2023/10/09 10:14:53;;;;;;;27.30;5.18;;;;;;;19.17;100.00;97924.81;5012242;28;20407;-80
2023/10/09 10:17:22;;;;;;;21.58;5.43;;;;;;;19.21;100.00;97931.16;5000751;28;20418;-80
2023/10/09 10:22:47;;;;;;;10.68;2.88;;;;;;;19.36;100.00;97932.78;4999882;28;20422;-80
2023/10/09 10:25:35;;;;;;;13.82;3.95;;;;;;;19.47;100.00;97923.53;5000081;28;20398;-80
2023/10/09 10:28:28;;;;;;;12.93;3.40;;;;;;;19.57;100.00;97926.81;5003275;28;20470;-77
2023/10/09 10:30:55;;;;;;;9.87;2.77;;;;;;;19.70;100.00;97920.66;4999191;28;20452;-79
2023/10/09 10:33:25;;;;;;;21.70;4.10;;;;;;;19.87;100.00;97914.72;4999804;28;20429;-79
2023/10/09 10:38:36;;;;;;;16.50;4.20;;;;;;;19.88;100.00;97920.88;5000368;28;20407;-79
2023/10/09 10:41:17;;;;;;;19.13;4.03;;;;;;;19.91;100.00;97922.97;4998122;28;20411;-82
2023/10/09 10:48:58;;;;;;;10.25;3.10;;;;;;;19.82;100.00;97903.28;5007901;28;20418;-81
2023/10/09 10:51:34;;;;;;;12.18;4.13;;;;;;;19.82;100.00;97908.63;5014748;28;20412;-84
2023/10/09 10:54:26;;;;;;;10.60;3.70;;;;;;;19.80;100.00;97910.81;5008902;28;20410;-83
2023/10/09 10:56:48;;;;;;;8.73;2.78;;;;;;;19.74;100.00;97912.00;5010109;28;20418;-82
2023/10/09 10:59:22;;;;;;;14.40;3.93;;;;;;;19.67;100.00;97915.09;5003223;28;20467;-82
2023/10/09 11:04:24;;;;;;;13.57;4.20;;;;;;;19.56;100.00;97911.78;5010909;28;20765;-79
2023/10/09 11:06:51;;;;;;;17.73;3.83;;;;;;;19.51;100.00;97917.25;5014821;28;20417;-81
2023/10/09 11:09:21;;;;;;;13.82;3.60;;;;;;;19.58;100.00;97912.28;5016132;28;20398;-80
2023/10/09 11:11:50;;;;;;;17.83;4.63;;;;;;;19.75;100.00;97905.56;5011159;28;20440;-80
2023/10/09 11:14:23;;;;;;;28.83;5.15;;;;;;;19.74;100.00;97906.66;5010653;28;20415;-80
2023/10/09 11:16:49;;;;;;;19.38;4.55;;;;;;;20.03;100.00;97912.53;5008920;28;20907;-81
2023/10/09 11:24:33;;;;;;;12.45;4.47;;;;;;;20.38;100.00;97913.72;5018169;28;20421;-79
2023/10/09 11:27:05;;;;;;;10.98;3.40;;;;;;;20.53;100.00;97917.97;5001769;28;20489;-82
2023/10/09 11:32:19;;;;;;;8.45;3.85;;;;;;;20.39;100.00;97913.41;5002028;28;20595;-80
2023/10/09 11:34:52;;;;;;;12.13;3.92;;;;;;;20.26;100.00;97914.19;5000126;28;20410;-79
2023/10/09 11:38:20;;;;;;;9.75;3.42;;;;;;;20.16;100.00;97905.53;4999848;28;20397;-78
2023/10/09 11:40:30;;;;;;;20.40;4.75;;;;;;;20.02;100.00;97910.94;4993525;28;20941;-81
2023/10/09 11:43:02;;;;;;;12.47;4.47;;;;;;;19.98;100.00;97897.31;4999653;28;20414;-80
2023/10/09 11:45:29;;;;;;;12.85;4.10;;;;;;;19.87;100.00;97892.41;5001587;28;20808;-80
2023/10/09 11:48:00;;;;;;;17.63;4.43;;;;;;;19.79;100.00;97890.41;4982268;28;20417;-80
2023/10/09 11:50:43;;;;;;;8.50;3.60;;;;;;;19.68;100.00;97885.25;4999053;28;20417;-80
2023/10/09 11:53:19;;;;;;;8.70;3.47;;;;;;;19.59;100.00;97894.28;4999856;28;20422;-80
2023/10/09 11:55:48;;;;;;;7.53;3.28;;;;;;;19.50;100.00;97896.88;5018891;28;20437;-79
2023/10/09 11:58:22;;;;;;;7.32;3.20;;;;;;;19.45;100.00;97893.44;5020671;28;20837;-80
2023/10/09 12:00:51;;;;;;;9.30;3.42;;;;;;;19.43;100.00;97890.25;5018154;28;20412;-80
2023/10/09 12:03:21;;;;;;;11.00;3.65;;;;;;;19.41;100.00;97890.53;5018412;28;20405;-80
2023/10/09 12:05:48;;;;;;;7.35;2.90;;;;;;;19.43;100.00;97885.69;5018779;28;20472;-80
2023/10/09 12:08:16;;;;;;;17.48;5.30;;;;;;;19.43;100.00;97876.81;5000613;28;20444;-80
2023/10/09 12:10:48;;;;;;;11.90;4.20;;;;;;;19.48;100.00;97857.97;5013181;28;20418;-80
2023/10/09 12:13:15;;;;;;;10.82;4.10;;;;;;;19.56;100.00;97862.66;5000079;28;20479;-80
2023/10/09 12:15:46;;;;;;;8.60;3.77;;;;;;;19.68;100.00;97862.97;5005092;28;20605;-80
2023/10/09 12:18:15;;;;;;;13.27;5.00;;;;;;;19.90;100.00;97854.22;5008764;28;20427;-79
2023/10/09 12:20:42;;;;;;;9.23;4.15;;;;;;;20.07;100.00;97849.78;5006616;28;20407;-80
2023/10/09 12:23:13;;;;;;;11.73;4.75;;;;;;;20.25;100.00;97848.09;4988027;28;20416;-80
2023/10/09 12:25:39;;;;;;;8.73;4.22;;;;;;;20.42;100.00;97837.53;5004228;28;20885;-80
2023/10/09 12:28:06;;;;;;;12.27;5.28;;;;;;;20.53;100.00;97848.81;5010337;28;20408;-79
2023/10/09 12:30:39;;;;;;;8.93;4.25;;;;;;;20.80;100.00;97835.28;5014337;28;20414;-80
2023/10/09 12:33:07;;;;;;;8.47;4.33;;;;;;;21.27;100.00;97830.38;5003545;28;20462;-83
2023/10/09 12:35:36;;;;;;;10.57;4.13;;;;;;;22.03;98.06;97824.81;5008455;28;20398;-80
2023/10/09 12:38:03;;;;;;;10.32;4.57;;;;;;;22.85;93.31;97807.72;5005029;28;20410;-80
2023/10/09 12:40:30;;;;;;;11.80;5.07;;;;;;;23.49;84.97;97808.50;5002853;28;20494;-78
2023/10/09 12:43:00;;;;;;;14.27;6.00;;;;;;;23.70;78.34;97811.28;5006060;28;20430;-80
2023/10/09 12:45:26;;;;;;;12.38;5.50;;;;;;;23.73;73.97;97824.94;5006801;28;20413;-80
2023/10/09 12:48:03;;;;;;;16.88;5.78;;;;;;;23.60;68.19;97814.38;5005655;28;20415;-80
2023/10/09 12:50:29;;;;;;;11.33;5.30;;;;;;;23.35;67.23;97824.91;4989636;28;21983;-79
2023/10/09 12:52:56;;;;;;;11.70;5.38;;;;;;;23.28;68.95;97821.91;5004832;28;20426;-80
2023/10/09 12:55:31;;;;;;;11.80;5.15;;;;;;;23.17;69.49;97824.16;5004942;28;20392;-81
2023/10/09 12:58:07;;;;;;;10.63;5.40;;;;;;;23.08;67.84;97830.72;5001081;28;20975;-80
2023/10/09 13:00:36;;;;;;;13.02;5.95;;;;;;;22.77;66.33;97831.72;5001491;28;20799;-80
2023/10/09 13:03:16;;;;;;;9.88;4.97;;;;;;;22.50;68.19;97837.38;5007126;28;20409;-80
2023/10/09 13:05:51;;;;;;;9.55;4.82;;;;;;;22.25;69.43;97825.47;4991845;28;20904;-79
2023/10/09 13:08:21;;;;;;;9.68;4.80;;;;;;;22.20;70.97;97827.53;5003196;28;20424;-80
2023/10/09 13:11:00;;;;;;;9.50;4.70;;;;;;;22.35;70.88;97829.75;5007293;28;20430;-81
2023/10/09 13:13:39;;;;;;;15.27;5.93;;;;;;;22.72;70.13;97825.63;5003592;28;20887;-80
2023/10/09 13:16:06;;;;;;;10.65;5.32;;;;;;;23.52;68.63;97824.09;5009268;28;20411;-80
2023/10/09 13:18:34;;;;;;;11.68;5.15;;;;;;;24.60;68.46;97825.97;5004777;28;20401;-81
2023/10/09 13:21:04;;;;;;;10.35;5.35;;;;;;;25.63;66.15;97823.41;5003838;28;20490;-80
2023/10/09 13:23:40;;;;;;;16.43;6.53;;;;;;;26.43;62.21;97812.69;5001364;28;20410;-82
2023/10/09 13:26:17;;;;;;;18.98;6.72;;;;;;;26.84;57.89;97814.25;5007813;28;20441;-81
2023/10/09 13:28:45;;;;;;;15.98;6.70;;;;;;;26.81;54.62;97799.44;5011616;28;20455;-81